Time;durP1;ratioP1;P1;durP2;ratioP2;P2;SDS_P1;SDS_P2;PMS_P1;PMS_P2;Temp;Humidity;BMP_temperature;BMP_pressure;BME280_temperature;BME280_humidity;BME280_pressure;Samples;Min_cycle;Max_cycle;Signal;HPM_P1;HPM_P2
2023/06/16 00:00:32;;;;;;;;;;;17.80;60.80;;;;;;6276418;22;19915;-76
2023/06/16 00:02:58;;;;;;;;;;;17.70;61.20;;;;;;6250627;22;19933;-76
2023/06/16 00:05:23;;;;;;;;;;;17.70;61.30;;;;;;6276317;22;19982;-75
2023/06/16 00:07:49;;;;;;;;;;;17.70;61.40;;;;;;6249359;22;19984;-76
2023/06/16 00:10:15;;;;;;;;;;;17.60;61.40;;;;;;6249030;22;19946;-76
2023/06/16 00:12:41;;;;;;;;;;;17.60;61.50;;;;;;6276370;22;19911;-76
2023/06/16 00:15:08;;;;;;;;;;;17.60;61.50;;;;;;6249135;22;20235;-76
2023/06/16 00:17:36;;;;;;;;;;;17.50;61.40;;;;;;6250665;22;20248;-76
2023/06/16 00:20:05;;;;;;;;;;;17.50;61.50;;;;;;6251868;22;19934;-76
2023/06/16 00:22:34;;;;;;;;;;;17.50;61.40;;;;;;6251741;22;19911;-77
2023/06/16 00:25:21;;;;;;;;;;;17.40;61.50;;;;;;6251127;22;19912;-76
2023/06/16 00:27:47;;;;;;;;;;;17.40;61.80;;;;;;6251062;22;19941;-76
2023/06/16 00:30:13;;;;;;;;;;;17.30;61.90;;;;;;6278200;22;19985;-76
2023/06/16 00:32:39;;;;;;;;;;;17.40;62.00;;;;;;6251206;22;19957;-76
2023/06/16 00:35:06;;;;;;;;;;;17.40;61.80;;;;;;6225638;22;20381;-76
2023/06/16 00:37:32;;;;;;;;;;;17.30;62.00;;;;;;6250784;22;19911;-76
2023/06/16 00:39:58;;;;;;;;;;;17.30;62.10;;;;;;6251131;22;20267;-77
2023/06/16 00:42:24;;;;;;;;;;;17.20;61.90;;;;;;6250554;22;20396;-76
2023/06/16 00:44:50;;;;;;;;;;;17.20;62.00;;;;;;6251232;22;20278;-76
2023/06/16 00:47:15;;;;;;;;;;;17.30;62.20;;;;;;6277316;22;20305;-77
2023/06/16 00:49:41;;;;;;;;;;;17.20;62.10;;;;;;6250968;22;19962;-75
2023/06/16 00:52:10;;;;;;;;;;;17.20;62.70;;;;;;6250451;22;19989;-76
2023/06/16 00:54:36;;;;;;;;;;;17.10;62.30;;;;;;6251063;22;20339;-76
2023/06/16 00:57:02;;;;;;;;;;;17.00;61.70;;;;;;6250134;22;19911;-76
2023/06/16 00:59:28;;;;;;;;;;;17.00;61.70;;;;;;6250813;22;20275;-76
2023/06/16 01:04:41;;;;;;;;;;;16.90;61.80;;;;;;6278155;22;19933;-76
2023/06/16 01:07:30;;;;;;;;;;;16.90;62.30;;;;;;6250146;22;19911;-76
2023/06/16 01:10:34;;;;;;;;;;;16.80;62.50;;;;;;6250675;22;19918;-77
2023/06/16 01:13:18;;;;;;;;;;;16.80;62.40;;;;;;6277764;22;19911;-76
2023/06/16 01:15:45;;;;;;;;;;;16.70;62.50;;;;;;6277868;22;20343;-76
2023/06/16 01:18:14;;;;;;;;;;;16.50;62.60;;;;;;6277692;22;19947;-76
2023/06/16 01:21:18;;;;;;;;;;;16.40;62.30;;;;;;6250917;22;19972;-76
2023/06/16 01:27:08;;;;;;;;;;;16.30;62.60;;;;;;6276872;22;19922;-76
2023/06/16 01:29:41;;;;;;;;;;;16.20;62.50;;;;;;6250818;22;19911;-76
2023/06/16 01:32:08;;;;;;;;;;;16.30;62.50;;;;;;6250023;22;19942;-76
2023/06/16 01:34:35;;;;;;;;;;;16.20;62.60;;;;;;6250550;22;19918;-76
2023/06/16 01:37:03;;;;;;;;;;;16.20;62.50;;;;;;6249932;22;19917;-76
2023/06/16 01:39:29;;;;;;;;;;;16.20;62.60;;;;;;6250623;22;19919;-76
2023/06/16 01:41:56;;;;;;;;;;;16.20;62.40;;;;;;6250059;22;19949;-76
2023/06/16 01:44:22;;;;;;;;;;;16.20;62.80;;;;;;6277612;22;19961;-76
2023/06/16 01:46:48;;;;;;;;;;;16.10;62.90;;;;;;6249527;22;19918;-76
2023/06/16 01:49:15;;;;;;;;;;;16.00;62.90;;;;;;6250568;22;19956;-76
2023/06/16 01:51:41;;;;;;;;;;;16.00;63.10;;;;;;6249700;22;19911;-76
2023/06/16 01:54:07;;;;;;;;;;;16.00;62.90;;;;;;6224994;22;20295;-76
2023/06/16 01:56:33;;;;;;;;;;;16.00;63.10;;;;;;6224345;22;19938;-76
2023/06/16 01:58:59;;;;;;;;;;;15.90;63.40;;;;;;6250337;22;19911;-76
2023/06/16 02:02:02;;;;;;;;;;;15.70;64.60;;;;;;6249678;22;19911;-75
2023/06/16 02:04:29;;;;;;;;;;;15.70;64.50;;;;;;6277915;22;19933;-76
2023/06/16 02:07:14;;;;;;;;;;;15.70;64.90;;;;;;6249670;22;19919;-76
2023/06/16 02:09:41;;;;;;;;;;;15.70;64.80;;;;;;6277427;22;20276;-77
2023/06/16 02:12:11;;;;;;;;;;;15.70;64.50;;;;;;6224248;22;19918;-76
2023/06/16 02:14:38;;;;;;;;;;;15.70;64.60;;;;;;6250711;22;19918;-76
2023/06/16 02:17:05;;;;;;;;;;;15.70;64.00;;;;;;6249489;22;19915;-76
2023/06/16 02:19:32;;;;;;;;;;;15.60;64.20;;;;;;6277109;22;19998;-77
2023/06/16 02:21:58;;;;;;;;;;;15.70;64.50;;;;;;6249662;22;19911;-77
2023/06/16 02:24:24;;;;;;;;;;;15.70;64.60;;;;;;6277164;22;19915;-76
2023/06/16 02:26:50;;;;;;;;;;;15.70;64.60;;;;;;6249463;22;20369;-77
2023/06/16 02:29:16;;;;;;;;;;;15.70;64.80;;;;;;6250235;22;19941;-76
2023/06/16 02:32:01;;;;;;;;;;;15.70;64.60;;;;;;6249537;22;19907;-76
2023/06/16 02:34:27;;;;;;;;;;;15.70;64.60;;;;;;6250160;22;19915;-76
2023/06/16 02:36:53;;;;;;;;;;;15.60;64.50;;;;;;6249300;22;19982;-76
2023/06/16 02:39:21;;;;;;;;;;;15.60;64.60;;;;;;6276535;22;19915;-77
2023/06/16 02:41:48;;;;;;;;;;;15.50;64.80;;;;;;6249867;22;19907;-76
2023/06/16 02:44:14;;;;;;;;;;;15.50;64.30;;;;;;6277043;22;20006;-76
2023/06/16 02:46:40;;;;;;;;;;;15.50;64.00;;;;;;6249001;22;20233;-76
2023/06/16 02:49:06;;;;;;;;;;;15.50;64.80;;;;;;6249656;22;19990;-76
2023/06/16 02:51:33;;;;;;;;;;;15.50;64.60;;;;;;6249266;22;20235;-76
2023/06/16 02:54:02;;;;;;;;;;;15.40;64.50;;;;;;6250014;22;19911;-77
2023/06/16 02:56:28;;;;;;;;;;;15.40;64.40;;;;;;6249151;22;19939;-76
2023/06/16 02:58:55;;;;;;;;;;;15.40;64.40;;;;;;6276785;22;19911;-76
2023/06/16 03:01:21;;;;;;;;;;;15.40;64.30;;;;;;6249197;22;19938;-76
2023/06/16 03:03:48;;;;;;;;;;;15.40;64.50;;;;;;6249756;22;19912;-77
2023/06/16 03:06:16;;;;;;;;;;;15.40;64.50;;;;;;6249397;22;19962;-77
2023/06/16 03:08:42;;;;;;;;;;;15.40;64.40;;;;;;6276721;22;20347;-76
2023/06/16 03:11:08;;;;;;;;;;;15.30;64.60;;;;;;6249167;22;19907;-76
2023/06/16 03:13:33;;;;;;;;;;;15.30;64.60;;;;;;6276667;22;20273;-76
2023/06/16 03:16:00;;;;;;;;;;;15.30;64.80;;;;;;6248896;22;19998;-77
2023/06/16 03:18:27;;;;;;;;;;;15.30;65.00;;;;;;6276639;22;19961;-76
2023/06/16 03:20:53;;;;;;;;;;;15.30;64.80;;;;;;6249498;22;19908;-76
2023/06/16 03:23:20;;;;;;;;;;;15.30;64.90;;;;;;6249897;22;19957;-77
2023/06/16 03:25:46;;;;;;;;;;;15.20;64.50;;;;;;6223849;22;20352;-77
2023/06/16 03:28:13;;;;;;;;;;;15.20;64.20;;;;;;6277237;22;19911;-77
2023/06/16 03:30:40;;;;;;;;;;;15.30;65.00;;;;;;6249162;22;19919;-77
2023/06/16 03:33:06;;;;;;;;;;;15.20;65.20;;;;;;6249571;22;19973;-76
2023/06/16 03:35:32;;;;;;;;;;;15.20;65.30;;;;;;6276132;22;19918;-76
2023/06/16 03:37:58;;;;;;;;;;;15.20;65.00;;;;;;6249559;22;19954;-76
2023/06/16 03:40:24;;;;;;;;;;;15.20;65.50;;;;;;6276248;22;19986;-77
2023/06/16 03:42:50;;;;;;;;;;;15.20;65.40;;;;;;6249744;22;19965;-77
2023/06/16 03:45:16;;;;;;;;;;;15.30;65.50;;;;;;6276098;22;19915;-76
2023/06/16 03:47:42;;;;;;;;;;;15.30;65.40;;;;;;6249413;22;20348;-77
2023/06/16 03:50:09;;;;;;;;;;;15.30;65.40;;;;;;6249267;22;19911;-77
2023/06/16 03:52:35;;;;;;;;;;;15.30;65.30;;;;;;6251483;22;20030;-77
2023/06/16 03:55:01;;;;;;;;;;;15.30;65.50;;;;;;6278725;22;19911;-77
2023/06/16 03:57:26;;;;;;;;;;;15.40;65.30;;;;;;6250986;22;20209;-77
2023/06/16 03:59:52;;;;;;;;;;;15.40;65.20;;;;;;6251446;22;20037;-76
2023/06/16 04:02:18;;;;;;;;;;;15.40;65.20;;;;;;6225583;22;20280;-77
2023/06/16 04:04:47;;;;;;;;;;;15.40;65.20;;;;;;6226070;22;19912;-76
2023/06/16 04:07:13;;;;;;;;;;;15.40;65.30;;;;;;6251374;22;19911;-76
2023/06/16 04:09:39;;;;;;;;;;;15.40;64.50;;;;;;6278471;22;20278;-77
2023/06/16 04:12:05;;;;;;;;;;;15.50;65.40;;;;;;6277949;22;19995;-77
2023/06/16 04:14:31;;;;;;;;;;;15.50;65.20;;;;;;6251361;22;20244;-77
2023/06/16 04:16:57;;;;;;;;;;;15.50;65.50;;;;;;6278246;22;19911;-77
2023/06/16 04:19:26;;;;;;;;;;;15.50;66.00;;;;;;6225965;22;20376;-77
2023/06/16 04:21:52;;;;;;;;;;;15.50;65.90;;;;;;6277837;22;19918;-77
2023/06/16 04:24:18;;;;;;;;;;;15.40;65.30;;;;;;6250039;22;19912;-76
2023/06/16 04:26:44;;;;;;;;;;;15.50;66.00;;;;;;6250612;22;19990;-77
2023/06/16 04:29:14;;;;;;;;;;;15.50;66.00;;;;;;6251335;22;19911;-77
2023/06/16 04:31:42;;;;;;;;;;;15.50;66.30;;;;;;6226621;22;20236;-77
2023/06/16 04:34:10;;;;;;;;;;;15.40;66.30;;;;;;6278246;22;19934;-77
2023/06/16 04:36:36;;;;;;;;;;;15.50;66.50;;;;;;6249858;22;20001;-77
2023/06/16 04:39:03;;;;;;;;;;;15.50;66.80;;;;;;6251122;22;19986;-77
2023/06/16 04:41:29;;;;;;;;;;;15.50;66.60;;;;;;6250681;22;20324;-77
2023/06/16 04:43:55;;;;;;;;;;;15.60;66.40;;;;;;6225786;22;19911;-76
2023/06/16 04:46:21;;;;;;;;;;;15.60;66.50;;;;;;6276910;22;19934;-77
2023/06/16 04:48:47;;;;;;;;;;;15.60;66.70;;;;;;6225617;22;19978;-76
2023/06/16 04:51:13;;;;;;;;;;;15.70;66.80;;;;;;6277600;22;19907;-77
2023/06/16 04:53:39;;;;;;;;;;;15.80;66.80;;;;;;6277947;22;19911;-77
2023/06/16 04:56:05;;;;;;;;;;;15.80;66.70;;;;;;6250471;22;20342;-76
2023/06/16 04:58:31;;;;;;;;;;;15.80;66.60;;;;;;6277830;22;19912;-77
2023/06/16 05:00:57;;;;;;;;;;;15.90;66.70;;;;;;6250371;22;20290;-76
2023/06/16 05:03:23;;;;;;;;;;;16.00;66.40;;;;;;6250717;22;20154;-77
2023/06/16 05:05:49;;;;;;;;;;;16.10;66.50;;;;;;6277413;22;19935;-76
2023/06/16 05:08:27;;;;;;;;;;;16.20;66.20;;;;;;6276090;22;20369;-76
2023/06/16 05:10:54;;;;;;;;;;;16.30;66.00;;;;;;6250434;22;19957;-76
2023/06/16 05:13:20;;;;;;;;;;;16.40;66.00;;;;;;6251229;22;20333;-76
2023/06/16 05:15:45;;;;;;;;;;;16.40;65.90;;;;;;6250340;22;19915;-77
2023/06/16 05:18:11;;;;;;;;;;;16.50;65.90;;;;;;6250932;22;19981;-76
2023/06/16 05:20:37;;;;;;;;;;;16.60;65.80;;;;;;6224687;22;19981;-76
2023/06/16 05:23:03;;;;;;;;;;;16.70;65.60;;;;;;6250821;22;19977;-77
2023/06/16 05:25:30;;;;;;;;;;;16.80;66.70;;;;;;6250209;22;19994;-77
2023/06/16 05:27:56;;;;;;;;;;;16.80;66.10;;;;;;6250691;22;19915;-77
2023/06/16 05:30:22;;;;;;;;;;;16.90;66.20;;;;;;6225197;22;19911;-77
2023/06/16 05:32:48;;;;;;;;;;;17.00;65.70;;;;;;6250672;22;19918;-76
2023/06/16 05:35:14;;;;;;;;;;;17.10;65.50;;;;;;6250089;22;19911;-77
2023/06/16 05:37:40;;;;;;;;;;;17.20;65.10;;;;;;6250790;22;19994;-76
2023/06/16 05:40:06;;;;;;;;;;;17.30;65.60;;;;;;6224870;22;20333;-76
2023/06/16 05:42:54;;;;;;;;;;;17.40;65.00;;;;;;6250370;22;19914;-76
2023/06/16 05:45:20;;;;;;;;;;;17.50;65.30;;;;;;6277044;22;20284;-77
2023/06/16 05:47:46;;;;;;;;;;;17.50;65.20;;;;;;6245286;23;20232;-77
2023/06/16 05:50:12;;;;;;;;;;;17.60;65.60;;;;;;6244871;23;19943;-76
2023/06/16 05:52:38;;;;;;;;;;;17.70;65.40;;;;;;6247245;22;19939;-76
2023/06/16 05:55:04;;;;;;;;;;;17.80;64.80;;;;;;6245152;23;20333;-76
2023/06/16 05:57:30;;;;;;;;;;;17.80;64.80;;;;;;6246328;22;19918;-76
2023/06/16 05:59:56;;;;;;;;;;;18.00;64.90;;;;;;6245128;23;19950;-76
2023/06/16 06:02:24;;;;;;;;;;;18.20;64.90;;;;;;6219293;23;19999;-76
2023/06/16 06:04:50;;;;;;;;;;;18.20;64.80;;;;;;6246516;22;19942;-76
2023/06/16 06:07:16;;;;;;;;;;;18.40;65.80;;;;;;6219081;23;20348;-76
2023/06/16 06:09:42;;;;;;;;;;;18.50;64.90;;;;;;6245101;23;20284;-76
2023/06/16 06:12:09;;;;;;;;;;;18.60;64.70;;;;;;6244630;23;20300;-76
2023/06/16 06:14:35;;;;;;;;;;;18.70;65.00;;;;;;6219289;23;19990;-77
2023/06/16 06:17:01;;;;;;;;;;;18.80;65.10;;;;;;6245921;23;20368;-77
2023/06/16 06:19:27;;;;;;;;;;;18.90;64.80;;;;;;6245151;23;20412;-76
2023/06/16 06:21:52;;;;;;;;;;;19.10;64.50;;;;;;6246136;22;20202;-77
2023/06/16 06:24:20;;;;;;;;;;;19.20;64.00;;;;;;6245144;23;19938;-77
2023/06/16 06:26:45;;;;;;;;;;;19.30;63.90;;;;;;6246096;22;19958;-75
2023/06/16 06:29:11;;;;;;;;;;;19.50;63.70;;;;;;6244998;23;20282;-76
2023/06/16 06:31:37;;;;;;;;;;;19.70;63.20;;;;;;6244327;23;19908;-77
2023/06/16 06:34:03;;;;;;;;;;;19.80;63.00;;;;;;6244897;23;20333;-76
2023/06/16 06:36:29;;;;;;;;;;;20.00;62.80;;;;;;6244277;23;19915;-77
2023/06/16 06:38:55;;;;;;;;;;;20.10;62.70;;;;;;6244906;23;20345;-77
2023/06/16 06:41:23;;;;;;;;;;;20.20;62.30;;;;;;6244237;22;20214;-77
2023/06/16 06:43:49;;;;;;;;;;;20.40;62.00;;;;;;6244763;23;19922;-76
2023/06/16 06:46:34;;;;;;;;;;;20.60;61.70;;;;;;6244131;22;19911;-76
2023/06/16 06:49:00;;;;;;;;;;;20.90;61.10;;;;;;6244728;23;19985;-76
2023/06/16 06:51:26;;;;;;;;;;;21.00;59.40;;;;;;6244099;23;19914;-76
2023/06/16 06:53:52;;;;;;;;;;;21.20;57.90;;;;;;6244819;23;19994;-78
2023/06/16 06:56:18;;;;;;;;;;;21.30;55.70;;;;;;6246038;22;19907;-77
2023/06/16 06:58:43;;;;;;;;;;;21.40;55.00;;;;;;6244699;23;20308;-77
2023/06/16 07:01:09;;;;;;;;;;;21.50;53.80;;;;;;6218756;23;19935;-77
2023/06/16 07:03:36;;;;;;;;;;;21.70;53.60;;;;;;6244523;23;20304;-76
2023/06/16 07:06:02;;;;;;;;;;;21.80;52.70;;;;;;6243883;23;19913;-76
2023/06/16 07:08:27;;;;;;;;;;;21.90;51.80;;;;;;6244602;23;19916;-75
2023/06/16 07:10:53;;;;;;;;;;;22.10;51.50;;;;;;6245621;22;19950;-76
2023/06/16 07:13:19;;;;;;;;;;;22.30;51.10;;;;;;6244788;23;19981;-76
2023/06/16 07:15:45;;;;;;;;;;;22.50;50.70;;;;;;6245589;23;19962;-77
2023/06/16 07:18:11;;;;;;;;;;;22.50;49.50;;;;;;6244686;23;19907;-76
2023/06/16 07:20:37;;;;;;;;;;;22.60;48.50;;;;;;6245607;22;19915;-75
2023/06/16 07:23:03;;;;;;;;;;;22.60;48.50;;;;;;6244713;23;20397;-77
2023/06/16 07:25:32;;;;;;;;;;;22.80;48.20;;;;;;6245466;22;20322;-75
2023/06/16 07:27:58;;;;;;;;;;;22.80;47.70;;;;;;6219905;23;19938;-75
2023/06/16 07:30:24;;;;;;;;;;;22.90;46.80;;;;;;6218715;23;19919;-75
2023/06/16 07:32:50;;;;;;;;;;;23.00;46.80;;;;;;6244560;23;19942;-77
2023/06/16 07:35:16;;;;;;;;;;;23.10;46.60;;;;;;6244069;23;19994;-76
2023/06/16 07:37:42;;;;;;;;;;;23.10;46.20;;;;;;6244201;23;19914;-77
2023/06/16 07:40:09;;;;;;;;;;;23.20;45.90;;;;;;6218709;23;19951;-76
2023/06/16 07:42:35;;;;;;;;;;;23.30;45.30;;;;;;6246378;22;19911;-78
2023/06/16 07:45:01;;;;;;;;;;;23.30;45.10;;;;;;6219093;23;20296;-77
2023/06/16 07:47:27;;;;;;;;;;;23.40;44.50;;;;;;6270733;22;19947;-77
2023/06/16 07:49:52;;;;;;;;;;;23.40;44.30;;;;;;6249567;22;19957;-78
2023/06/16 07:52:18;;;;;;;;;;;23.50;44.50;;;;;;6223697;22;19978;-76
2023/06/16 07:54:45;;;;;;;;;;;23.60;44.30;;;;;;6249597;22;19951;-78
2023/06/16 07:57:11;;;;;;;;;;;23.70;44.60;;;;;;6223812;22;19998;-76
2023/06/16 07:59:37;;;;;;;;;;;23.70;43.80;;;;;;6249504;22;20406;-76
2023/06/16 08:02:03;;;;;;;;;;;23.80;43.50;;;;;;6276195;22;19991;-76
2023/06/16 08:04:29;;;;;;;;;;;23.80;43.40;;;;;;6249535;22;20374;-77
2023/06/16 08:09:41;;;;;;;;;;;24.00;43.90;;;;;;6276332;22;19915;-75
2023/06/16 08:12:10;;;;;;;;;;;24.10;44.00;;;;;;6223532;22;19986;-78
2023/06/16 08:14:37;;;;;;;;;;;24.10;43.20;;;;;;6250019;22;19953;-77
2023/06/16 08:17:03;;;;;;;;;;;24.10;43.00;;;;;;6248647;22;19914;-77
2023/06/16 08:19:28;;;;;;;;;;;24.20;42.70;;;;;;6276350;22;19915;-78
2023/06/16 08:21:54;;;;;;;;;;;24.30;43.50;;;;;;6248717;22;19942;-78
2023/06/16 08:24:20;;;;;;;;;;;24.40;43.20;;;;;;6276493;22;19990;-78
2023/06/16 08:26:46;;;;;;;;;;;24.40;42.50;;;;;;6248639;22;19945;-77
2023/06/16 08:29:14;;;;;;;;;;;24.50;43.40;;;;;;6249544;22;19998;-78
2023/06/16 08:31:40;;;;;;;;;;;24.50;42.40;;;;;;6249280;22;20313;-76
2023/06/16 08:34:07;;;;;;;;;;;24.60;42.40;;;;;;6249559;22;19961;-76
2023/06/16 08:36:33;;;;;;;;;;;24.60;42.10;;;;;;6275629;22;19907;-77
2023/06/16 08:38:59;;;;;;;;;;;24.70;42.00;;;;;;6250818;22;19946;-76
2023/06/16 08:41:25;;;;;;;;;;;24.70;42.00;;;;;;6277630;22;19908;-76
2023/06/16 08:43:53;;;;;;;;;;;24.70;41.70;;;;;;6278177;22;19923;-76
2023/06/16 08:46:19;;;;;;;;;;;24.80;41.70;;;;;;6250137;22;19918;-77
2023/06/16 08:48:45;;;;;;;;;;;24.90;42.10;;;;;;6251174;22;19930;-77
2023/06/16 08:51:14;;;;;;;;;;;24.90;41.40;;;;;;6225134;22;20305;-76
2023/06/16 08:53:41;;;;;;;;;;;25.10;41.90;;;;;;6251142;22;19926;-76
2023/06/16 08:56:07;;;;;;;;;;;25.20;42.10;;;;;;6250553;22;19911;-76
2023/06/16 08:58:35;;;;;;;;;;;25.30;41.60;;;;;;6250708;22;19919;-77
2023/06/16 09:01:02;;;;;;;;;;;25.40;40.80;;;;;;6224846;22;19907;-78
2023/06/16 09:06:14;;;;;;;;;;;25.50;39.70;;;;;;6254495;22;19961;-78
2023/06/16 09:08:40;;;;;;;;;;;25.50;39.80;;;;;;6251089;22;19939;-77
2023/06/16 09:11:09;;;;;;;;;;;25.60;40.00;;;;;;6250351;22;20268;-76
2023/06/16 09:13:35;;;;;;;;;;;25.60;39.60;;;;;;6277853;22;19912;-77
2023/06/16 09:16:00;;;;;;;;;;;25.70;39.50;;;;;;6250277;22;20006;-78
2023/06/16 09:18:45;;;;;;;;;;;25.80;39.00;;;;;;6225390;22;20221;-77
2023/06/16 09:21:11;;;;;;;;;;;25.80;38.60;;;;;;6250127;22;19907;-76
2023/06/16 09:23:38;;;;;;;;;;;25.80;38.20;;;;;;6250497;22;20348;-76
2023/06/16 09:26:28;;;;;;;;;;;25.80;38.10;;;;;;6250184;22;19907;-78
2023/06/16 09:28:54;;;;;;;;;;;26.00;38.20;;;;;;6251548;22;19994;-76
2023/06/16 09:31:23;;;;;;;;;;;26.20;38.00;;;;;;6277115;22;19964;-76
2023/06/16 09:33:48;;;;;;;;;;;26.30;37.60;;;;;;6250736;22;19964;-78
2023/06/16 09:36:33;;;;;;;;;;;26.60;37.10;;;;;;6277250;22;20325;-78
2023/06/16 09:38:59;;;;;;;;;;;27.00;37.10;;;;;;6277190;22;19957;-78
2023/06/16 09:41:25;;;;;;;;;;;27.40;36.20;;;;;;6276821;22;19911;-76
2023/06/16 09:43:51;;;;;;;;;;;27.70;35.50;;;;;;6277547;22;19911;-78
2023/06/16 09:46:21;;;;;;;;;;;28.20;35.20;;;;;;6244693;23;19912;-77
2023/06/16 09:48:48;;;;;;;;;;;28.80;33.60;;;;;;6245109;23;19915;-79
2023/06/16 09:51:33;;;;;;;;;;;29.60;32.40;;;;;;6244807;22;19908;-79
2023/06/16 09:53:59;;;;;;;;;;;30.40;30.80;;;;;;6245310;23;19918;-77
2023/06/16 09:56:26;;;;;;;;;;;30.90;29.20;;;;;;6244582;23;19912;-77
2023/06/16 09:58:52;;;;;;;;;;;31.40;28.80;;;;;;6247032;22;19911;-77
2023/06/16 10:01:22;;;;;;;;;;;32.20;28.40;;;;;;6246547;22;19941;-78
2023/06/16 10:03:48;;;;;;;;;;;32.70;27.30;;;;;;6246783;22;19911;-78
2023/06/16 10:06:19;;;;;;;;;;;33.30;26.80;;;;;;6219394;22;19953;-77
2023/06/16 10:08:47;;;;;;;;;;;34.00;26.00;;;;;;6245246;23;19911;-76
2023/06/16 10:11:16;;;;;;;;;;;34.60;25.40;;;;;;6244771;22;19934;-79
2023/06/16 10:14:04;;;;;;;;;;;35.20;24.90;;;;;;6245094;23;20321;-79
2023/06/16 10:16:31;;;;;;;;;;;35.40;24.10;;;;;;6270025;22;19918;-79
2023/06/16 10:18:59;;;;;;;;;;;36.00;23.90;;;;;;6245084;23;19911;-78
2023/06/16 10:21:26;;;;;;;;;;;36.60;22.80;;;;;;6244235;23;19912;-79
2023/06/16 10:23:52;;;;;;;;;;;37.10;22.30;;;;;;6245026;22;19912;-76
2023/06/16 10:26:18;;;;;;;;;;;37.30;21.30;;;;;;6244518;23;19912;-77
2023/06/16 10:28:44;;;;;;;;;;;37.50;20.50;;;;;;6245085;23;19911;-76
2023/06/16 10:31:11;;;;;;;;;;;37.80;20.40;;;;;;6246043;22;19961;-78
2023/06/16 10:33:56;;;;;;;;;;;38.20;19.80;;;;;;6245026;23;19915;-77
2023/06/16 10:36:26;;;;;;;;;;;38.50;19.30;;;;;;6244279;23;19961;-78
2023/06/16 10:39:17;;;;;;;;;;;38.80;19.00;;;;;;6246413;22;19958;-78
2023/06/16 10:42:02;;;;;;;;;;;39.50;18.90;;;;;;6244814;23;19918;-76
2023/06/16 10:44:47;;;;;;;;;;;40.30;18.30;;;;;;6219842;23;19918;-77
2023/06/16 10:47:12;;;;;;;;;;;40.80;17.90;;;;;;6244191;23;20313;-76
2023/06/16 10:49:57;;;;;;;;;;;41.00;17.60;;;;;;6244775;23;19919;-76
2023/06/16 10:52:33;;;;;;;;;;;41.60;17.20;;;;;;6244282;22;19911;-76
2023/06/16 10:55:34;;;;;;;;;;;42.20;17.20;;;;;;6219608;23;20206;-79
2023/06/16 11:01:20;;;;;;;;;;;42.20;16.60;;;;;;6245408;23;19958;-76
2023/06/16 11:03:46;;;;;;;;;;;42.90;16.40;;;;;;6244896;23;19922;-76
2023/06/16 11:06:12;;;;;;;;;;;43.50;16.00;;;;;;6244190;23;19908;-78
2023/06/16 11:08:58;;;;;;;;;;;43.80;15.40;;;;;;6244583;23;19912;-77
2023/06/16 11:11:43;;;;;;;;;;;44.50;15.30;;;;;;6244385;22;19958;-76
2023/06/16 11:14:10;;;;;;;;;;;44.80;14.50;;;;;;6244707;23;19961;-79
2023/06/16 11:16:36;;;;;;;;;;;45.30;14.60;;;;;;6245526;22;20333;-78
2023/06/16 11:19:02;;;;;;;;;;;45.80;13.90;;;;;;6244492;23;19912;-76
2023/06/16 11:21:30;;;;;;;;;;;46.30;13.90;;;;;;6218679;23;19987;-79
2023/06/16 11:24:07;;;;;;;;;;;46.50;13.30;;;;;;6246243;22;19950;-78
2023/06/16 11:26:33;;;;;;;;;;;46.60;13.10;;;;;;6244249;23;20321;-76
2023/06/16 11:28:59;;;;;;;;;;;46.60;13.00;;;;;;6244482;23;20132;-77
2023/06/16 11:31:25;;;;;;;;;;;46.80;12.90;;;;;;6244076;22;20275;-76
2023/06/16 11:33:54;;;;;;;;;;;47.10;13.20;;;;;;6246024;23;19957;-78
2023/06/16 11:36:22;;;;;;;;;;;47.40;12.50;;;;;;6218652;22;20245;-77
2023/06/16 11:39:08;;;;;;;;;;;47.40;12.30;;;;;;6246118;22;19912;-76
2023/06/16 11:41:34;;;;;;;;;;;47.70;12.20;;;;;;6245685;22;20224;-77
2023/06/16 11:43:59;;;;;;;;;;;47.90;11.90;;;;;;6246023;23;19939;-76
2023/06/16 11:46:30;;;;;;;;;;;46.10;13.50;;;;;;6257067;22;20280;-79
2023/06/16 11:48:56;;;;;;;;;;;46.60;12.50;;;;;;6249980;22;20236;-79
2023/06/16 11:51:23;;;;;;;;;;;47.20;12.60;;;;;;6275992;22;19911;-79
2023/06/16 11:53:50;;;;;;;;;;;46.50;12.70;;;;;;6249869;22;19911;-78
2023/06/16 11:56:17;;;;;;;;;;;46.90;12.00;;;;;;6276255;22;19907;-77
2023/06/16 11:58:44;;;;;;;;;;;47.20;12.20;;;;;;6249671;22;20020;-78
2023/06/16 12:01:14;;;;;;;;;;;47.60;11.80;;;;;;6249103;22;19907;-76
2023/06/16 12:03:41;;;;;;;;;;;47.50;11.40;;;;;;6250066;22;19953;-77
2023/06/16 12:06:08;;;;;;;;;;;47.70;11.10;;;;;;6248964;22;19953;-76
2023/06/16 12:08:54;;;;;;;;;;;47.90;11.20;;;;;;6276722;22;20288;-77
2023/06/16 12:11:46;;;;;;;;;;;48.40;11.10;;;;;;6276339;22;19911;-78
2023/06/16 12:14:19;;;;;;;;;;;48.80;10.90;;;;;;6252853;22;19911;-76
2023/06/16 12:16:45;;;;;;;;;;;48.70;10.00;;;;;;6251059;22;19911;-76
2023/06/16 12:19:11;;;;;;;;;;;48.70;10.00;;;;;;6278405;22;19957;-78
2023/06/16 12:21:38;;;;;;;;;;;48.70;10.60;;;;;;6250833;22;20291;-77
2023/06/16 12:24:04;;;;;;;;;;;48.90;10.40;;;;;;6251300;22;19914;-77
2023/06/16 12:26:51;;;;;;;;;;;49.00;10.30;;;;;;6250885;22;19969;-77
2023/06/16 12:29:17;;;;;;;;;;;49.00;10.90;;;;;;6278582;22;20287;-77
2023/06/16 12:32:03;;;;;;;;;;;48.90;10.10;;;;;;6250553;22;19938;-79
2023/06/16 12:34:32;;;;;;;;;;;48.80;10.30;;;;;;6251488;22;19922;-79
2023/06/16 12:37:10;;;;;;;;;;;49.00;10.80;;;;;;6251080;22;19992;-76
2023/06/16 12:39:37;;;;;;;;;;;49.10;10.40;;;;;;6251795;22;19926;-77
2023/06/16 12:42:05;;;;;;;;;;;48.70;10.10;;;;;;6250622;22;20416;-79
2023/06/16 12:44:50;;;;;;;;;;;48.80;10.10;;;;;;6251266;22;20006;-76
2023/06/16 12:47:36;;;;;;;;;;;48.60;9.90;;;;;;6250247;22;19911;-76
2023/06/16 12:50:04;;;;;;;;;;;48.40;10.30;;;;;;6278500;22;19964;-77
2023/06/16 12:52:30;;;;;;;;;;;47.90;10.40;;;;;;6250691;22;19911;-77
2023/06/16 12:54:58;;;;;;;;;;;47.00;10.70;;;;;;6251156;22;20385;-76
2023/06/16 12:57:25;;;;;;;;;;;46.10;11.20;;;;;;6250476;22;19911;-77
2023/06/16 12:59:51;;;;;;;;;;;45.10;11.90;;;;;;6225464;22;19911;-77
2023/06/16 13:02:18;;;;;;;;;;;44.20;12.70;;;;;;6277770;22;20297;-78
2023/06/16 13:04:44;;;;;;;;;;;43.00;13.40;;;;;;6250975;22;19918;-76
2023/06/16 13:07:10;;;;;;;;;;;41.80;13.70;;;;;;6250206;22;19911;-78
2023/06/16 13:09:37;;;;;;;;;;;40.90;14.20;;;;;;6251130;22;19919;-77
2023/06/16 13:12:06;;;;;;;;;;;40.10;14.60;;;;;;6277517;22;20244;-77
2023/06/16 13:14:33;;;;;;;;;;;39.30;15.70;;;;;;6251572;22;20301;-76
2023/06/16 13:16:59;;;;;;;;;;;38.60;16.00;;;;;;6250338;22;19918;-78
2023/06/16 13:19:25;;;;;;;;;;;38.10;16.70;;;;;;6250912;22;19911;-78
2023/06/16 13:21:51;;;;;;;;;;;37.60;16.60;;;;;;6277345;22;19945;-78
2023/06/16 13:24:17;;;;;;;;;;;37.40;16.90;;;;;;6250514;22;19922;-77
2023/06/16 13:26:43;;;;;;;;;;;36.90;16.80;;;;;;6277256;22;19911;-78
2023/06/16 13:29:10;;;;;;;;;;;36.60;17.40;;;;;;6250812;22;19917;-79
2023/06/16 13:31:35;;;;;;;;;;;36.40;17.80;;;;;;6249915;22;19935;-76
2023/06/16 13:34:01;;;;;;;;;;;36.00;18.40;;;;;;6250778;22;19911;-78
2023/06/16 13:36:27;;;;;;;;;;;35.70;18.50;;;;;;6224597;22;19911;-77
2023/06/16 13:38:53;;;;;;;;;;;35.50;18.70;;;;;;6250394;22;19912;-77
2023/06/16 13:41:20;;;;;;;;;;;35.20;19.10;;;;;;6250056;22;19941;-78
2023/06/16 13:43:48;;;;;;;;;;;35.00;18.90;;;;;;6250744;22;20452;-79
2023/06/16 13:46:15;;;;;;;;;;;34.90;18.80;;;;;;6244860;23;19912;-76
2023/06/16 13:49:02;;;;;;;;;;;34.70;19.10;;;;;;6245439;23;19950;-77
2023/06/16 13:51:27;;;;;;;;;;;34.70;19.40;;;;;;6244589;22;19939;-77
2023/06/16 13:53:53;;;;;;;;;;;34.50;19.40;;;;;;6245345;23;19990;-77
2023/06/16 13:56:20;;;;;;;;;;;34.30;19.70;;;;;;6219561;22;19943;-76
2023/06/16 13:58:46;;;;;;;;;;;34.10;19.50;;;;;;6245271;22;19951;-79
2023/06/16 14:01:12;;;;;;;;;;;34.10;20.00;;;;;;6244669;23;19915;-77
2023/06/16 14:03:38;;;;;;;;;;;34.00;20.20;;;;;;6219927;23;20312;-77
2023/06/16 14:06:04;;;;;;;;;;;34.00;20.00;;;;;;6244685;23;20010;-78
2023/06/16 14:08:30;;;;;;;;;;;33.80;19.70;;;;;;6219951;23;19915;-79
2023/06/16 14:10:56;;;;;;;;;;;33.80;20.00;;;;;;6246200;23;19907;-77
2023/06/16 14:13:23;;;;;;;;;;;33.90;20.30;;;;;;6245162;23;19916;-78
2023/06/16 14:15:49;;;;;;;;;;;33.80;20.50;;;;;;6244646;23;19907;-78
2023/06/16 14:18:16;;;;;;;;;;;33.70;20.00;;;;;;6245364;22;19911;-76
2023/06/16 14:20:41;;;;;;;;;;;33.60;20.40;;;;;;6219124;23;19951;-77
2023/06/16 14:23:07;;;;;;;;;;;33.60;20.90;;;;;;6245187;23;19915;-77
2023/06/16 14:25:34;;;;;;;;;;;33.50;21.00;;;;;;6246058;22;19922;-78
2023/06/16 14:28:00;;;;;;;;;;;33.40;21.00;;;;;;6245140;22;20305;-79
2023/06/16 14:30:26;;;;;;;;;;;33.30;21.30;;;;;;6244524;23;19924;-78
2023/06/16 14:32:52;;;;;;;;;;;33.30;21.40;;;;;;6245007;22;19911;-79
2023/06/16 14:35:18;;;;;;;;;;;33.40;21.10;;;;;;6244140;23;19915;-78
2023/06/16 14:37:44;;;;;;;;;;;33.40;21.00;;;;;;6245030;23;19998;-76